< < Back
Terminal Aerodrome Forecast


Current Version              Previous Versions:   1  2  3  4  5  6  7  8  9  

Terminal Aerodrome Forecast

455
FTUS42 KGSP 181100
TAFAVL
TAF
KAVL 181133Z 1812/1912 12003KT P6SM SCT040 OVC200
     FM182000 VRB03KT P6SM -RA OVC025
     FM182300 35009KT 5SM RA BR OVC010
     FM190600 01006KT 4SM -RA BR OVC012=



Latest METAR

097
SAUS70 KWBC 191200 RRI
MTRAVL
METAR KAVL 191154Z 34007KT 10SM -RA OVC027 09/08 A3017 RMK AO2 SLP211
P0003 60011 70051 T00890078 10089 20078 53014


USA.gov is the U.S. government's official web portal to all federal, state and local government web resources and services.